createdAt,value
2022-11-04T00:00:09.952Z,3.35
2022-11-04T00:01:11.782Z,2.78
2022-11-04T00:02:14.417Z,2.80
2022-11-04T00:03:16.059Z,3.22
2022-11-04T00:04:19.806Z,3.83
2022-11-04T00:05:22.337Z,2.95
2022-11-04T00:06:24.321Z,3.50
2022-11-04T00:07:44.563Z,3.55
2022-11-04T00:08:50.164Z,3.42
2022-11-04T00:09:52.690Z,3.85
2022-11-04T00:11:13.019Z,3.78
2022-11-04T00:12:24.994Z,3.65
2022-11-04T00:13:28.665Z,3.20
2022-11-04T00:14:31.793Z,3.30
2022-11-04T00:15:54.996Z,2.83
2022-11-04T00:17:15.268Z,2.88
2022-11-04T00:18:16.882Z,2.55
2022-11-04T00:19:19.813Z,2.60
2022-11-04T00:20:39.905Z,2.53
2022-11-04T00:22:00.175Z,2.03
2022-11-04T00:23:20.471Z,1.50
2022-11-04T00:24:40.764Z,1.98
2022-11-04T00:26:01.148Z,1.65
2022-11-04T00:27:26.837Z,1.63
2022-11-04T00:28:45.915Z,1.52
2022-11-04T00:29:47.501Z,1.40
2022-11-04T00:30:50.214Z,1.73
2022-11-04T00:32:10.169Z,1.85
2022-11-04T00:33:27.053Z,2.13
2022-11-04T00:34:28.632Z,1.90
2022-11-04T00:35:31.183Z,1.70
2022-11-04T00:36:34.632Z,1.63
2022-11-04T00:37:37.172Z,2.35
2022-11-04T00:38:39.770Z,2.00
2022-11-04T00:39:41.350Z,1.80
2022-11-04T00:40:43.976Z,2.03
2022-11-04T00:41:45.561Z,1.83
2022-11-04T00:42:48.089Z,2.00
2022-11-04T00:43:51.125Z,1.88
2022-11-04T00:44:53.652Z,2.00
2022-11-04T00:45:56.247Z,1.80
2022-11-04T00:46:57.834Z,1.92
2022-11-04T00:48:00.387Z,1.70
2022-11-04T00:49:04.215Z,2.00
2022-11-04T00:50:08.307Z,1.90
2022-11-04T00:51:10.094Z,2.25
2022-11-04T00:52:12.921Z,1.75
2022-11-04T00:53:15.506Z,2.13
2022-11-04T00:54:17.103Z,1.88
2022-11-04T00:55:19.820Z,2.10
2022-11-04T00:56:21.594Z,2.17
2022-11-04T00:57:24.214Z,1.60
2022-11-04T00:58:25.802Z,1.67
2022-11-04T00:59:29.704Z,1.70
2022-11-04T01:00:31.270Z,1.52
2022-11-04T01:01:34.144Z,1.50
2022-11-04T01:02:35.909Z,1.88
2022-11-04T01:03:38.722Z,1.80
2022-11-04T01:04:40.289Z,1.55
2022-11-04T01:05:42.872Z,1.52
2022-11-04T01:06:44.615Z,1.80
2022-11-04T01:07:47.301Z,1.50
2022-11-04T01:08:49.321Z,1.67
2022-11-04T01:09:51.858Z,1.77
2022-11-04T01:10:53.438Z,1.58
2022-11-04T01:11:56.182Z,1.75
2022-11-04T01:12:57.722Z,1.70
2022-11-04T01:14:00.352Z,2.20
2022-11-04T01:15:03.504Z,1.80
2022-11-04T01:16:08.578Z,1.83
2022-11-04T01:17:10.179Z,1.88
2022-11-04T01:18:13.055Z,1.63
2022-11-04T01:19:14.578Z,2.20
2022-11-04T01:20:17.327Z,1.90
2022-11-04T01:21:19.274Z,2.05
2022-11-04T01:22:21.783Z,1.90
2022-11-04T01:23:23.370Z,2.17
2022-11-04T01:24:25.915Z,2.22
2022-11-04T01:25:27.485Z,2.25
2022-11-04T01:26:30.607Z,2.28
2022-11-04T01:27:32.154Z,2.53
2022-11-04T01:28:34.768Z,2.55
2022-11-04T01:29:36.338Z,2.17
2022-11-04T01:30:40.272Z,2.70
2022-11-04T01:31:41.926Z,2.17
2022-11-04T01:32:44.622Z,2.45
2022-11-04T01:33:46.210Z,2.65
2022-11-04T01:34:48.963Z,3.00
2022-11-04T01:35:50.810Z,3.38
2022-11-04T01:36:53.386Z,3.38
2022-11-04T01:37:54.982Z,3.35
2022-11-04T01:38:57.831Z,3.15
2022-11-04T01:39:59.431Z,3.10
2022-11-04T01:41:02.125Z,2.67
2022-11-04T01:43:14.051Z,3.33
2022-11-04T01:44:48.983Z,3.50
2022-11-04T01:45:54.236Z,3.08
2022-11-04T01:46:56.750Z,3.63
2022-11-04T01:48:01.758Z,3.15
2022-11-04T01:49:10.980Z,3.78
2022-11-04T01:50:23.244Z,3.78
2022-11-04T01:51:24.921Z,3.50
2022-11-04T01:52:30.330Z,3.75
2022-11-04T01:53:33.395Z,3.45
2022-11-04T01:54:36.381Z,3.42
2022-11-04T01:55:41.704Z,3.50
2022-11-04T01:56:45.522Z,3.30
2022-11-04T01:57:49.100Z,3.35
2022-11-04T01:58:53.764Z,3.15
2022-11-04T01:59:55.431Z,3.60
2022-11-04T02:00:59.452Z,3.40
2022-11-04T02:02:01.451Z,3.22
2022-11-04T02:03:07.828Z,3.55
2022-11-04T02:04:29.946Z,4.00
2022-11-04T02:05:32.887Z,3.53
2022-11-04T02:06:34.455Z,3.30
2022-11-04T02:07:37.327Z,3.15
2022-11-04T02:08:39.514Z,3.38
2022-11-04T02:09:42.753Z,3.45
2022-11-04T02:10:49.914Z,3.42
2022-11-04T02:12:10.352Z,3.20
2022-11-04T02:13:12.917Z,3.72
2022-11-04T02:14:14.459Z,3.55
2022-11-04T02:15:17.800Z,3.28
2022-11-04T02:16:23.255Z,3.40
2022-11-04T02:17:36.847Z,3.33
2022-11-04T02:18:51.329Z,3.35
2022-11-04T02:20:06.526Z,3.60
2022-11-04T02:21:48.217Z,2.83
2022-11-04T02:23:17.959Z,3.33
2022-11-04T02:24:43.951Z,3.00
2022-11-04T02:26:07.811Z,3.53
2022-11-04T02:27:22.514Z,3.63
2022-11-04T02:28:37.800Z,3.47
2022-11-04T02:29:47.499Z,3.60
2022-11-04T02:30:53.055Z,4.18
2022-11-04T02:32:04.533Z,3.90
2022-11-04T02:33:18.000Z,4.43
2022-11-04T02:34:24.559Z,3.80
2022-11-04T02:35:31.888Z,5.40
2022-11-04T02:36:40.062Z,3.80
2022-11-04T02:37:50.451Z,4.03
2022-11-04T02:38:55.346Z,3.85
2022-11-04T02:40:08.290Z,4.15
2022-11-04T02:41:15.071Z,3.85
2022-11-04T02:42:25.892Z,4.80
2022-11-04T02:43:31.896Z,4.32
2022-11-04T02:44:38.194Z,4.32
2022-11-04T02:45:42.584Z,4.50
2022-11-04T02:46:50.537Z,4.63
2022-11-04T02:47:54.956Z,4.80
2022-11-04T02:49:00.893Z,4.45
2022-11-04T02:50:07.571Z,5.13
2022-11-04T02:51:13.519Z,4.60
2022-11-04T02:52:18.077Z,4.47
2022-11-04T02:53:23.766Z,5.32
2022-11-04T02:54:28.237Z,4.72
2022-11-04T02:55:35.508Z,4.60
2022-11-04T02:56:39.256Z,4.72
2022-11-04T02:57:43.307Z,4.53
2022-11-04T02:58:48.879Z,4.95
2022-11-04T02:59:54.167Z,5.65
2022-11-04T03:00:59.916Z,5.40
2022-11-04T03:02:04.617Z,5.28
2022-11-04T03:03:10.928Z,5.32
2022-11-04T03:04:14.676Z,5.18
2022-11-04T03:05:20.160Z,5.47
2022-11-04T03:06:23.439Z,5.80
2022-11-04T03:07:28.735Z,6.13
2022-11-04T03:08:32.020Z,5.75
2022-11-04T03:09:35.924Z,5.50
2022-11-04T03:10:41.862Z,6.20
2022-11-04T03:11:46.877Z,5.97
2022-11-04T03:12:51.979Z,6.05
2022-11-04T03:13:58.109Z,5.93
2022-11-04T03:15:02.443Z,5.40
2022-11-04T03:16:10.178Z,5.68
2022-11-04T03:17:18.419Z,5.63
2022-11-04T03:18:25.069Z,6.32
2022-11-04T03:19:29.896Z,5.55
2022-11-04T03:20:32.604Z,6.22
2022-11-04T03:21:36.866Z,5.78
2022-11-04T03:22:39.774Z,6.20
2022-11-04T03:23:41.546Z,6.05
2022-11-04T03:24:45.801Z,5.50
2022-11-04T03:25:52.067Z,5.40
2022-11-04T03:27:00.870Z,5.88
2022-11-04T03:28:06.298Z,6.78
2022-11-04T03:29:22.559Z,5.80
2022-11-04T03:30:24.740Z,5.72
2022-11-04T03:31:35.229Z,6.20
2022-11-04T03:32:41.306Z,6.00
2022-11-04T03:33:47.178Z,6.20
2022-11-04T03:34:49.839Z,5.65
2022-11-04T03:35:51.438Z,5.78
2022-11-04T03:36:53.985Z,6.47
2022-11-04T03:37:55.601Z,5.93
2022-11-04T03:38:58.173Z,5.68
2022-11-04T03:39:59.827Z,5.63
2022-11-04T03:41:03.315Z,6.30
2022-11-04T03:42:19.943Z,6.07
2022-11-04T03:43:25.897Z,6.07
2022-11-04T03:44:28.262Z,5.60
2022-11-04T03:45:30.842Z,5.88
2022-11-04T03:46:34.087Z,5.82
2022-11-04T03:47:37.341Z,6.32
2022-11-04T03:48:39.135Z,6.22
2022-11-04T03:49:44.167Z,6.03
2022-11-04T03:50:47.535Z,6.28
2022-11-04T03:51:50.127Z,6.57
2022-11-04T03:52:51.759Z,6.43
2022-11-04T03:53:54.427Z,6.40
2022-11-04T03:54:56.119Z,6.70
2022-11-04T03:56:10.450Z,6.70
2022-11-04T03:57:26.870Z,5.80
2022-11-04T03:58:35.513Z,5.78
2022-11-04T03:59:52.488Z,5.95
2022-11-04T04:01:04.262Z,6.00
2022-11-04T04:02:12.384Z,5.88
2022-11-04T04:03:19.230Z,6.22
2022-11-04T04:04:26.939Z,6.22
2022-11-04T04:05:31.302Z,5.55
2022-11-04T04:06:35.339Z,5.75
2022-11-04T04:07:39.996Z,5.15
2022-11-04T04:08:44.553Z,4.75
2022-11-04T04:09:51.811Z,5.20
2022-11-04T04:11:03.222Z,4.80
2022-11-04T04:12:10.301Z,5.10
2022-11-04T04:13:20.500Z,5.22
2022-11-04T04:14:39.977Z,5.65
2022-11-04T04:15:46.062Z,5.63
2022-11-04T04:16:48.978Z,5.28
2022-11-04T04:17:54.579Z,5.10
2022-11-04T04:18:59.581Z,5.18
2022-11-04T04:20:04.819Z,4.30
2022-11-04T04:21:10.025Z,5.32
2022-11-04T04:22:14.570Z,4.72
2022-11-04T04:23:38.061Z,5.18
2022-11-04T04:25:00.807Z,4.47
2022-11-04T04:26:24.264Z,5.38
2022-11-04T04:27:32.922Z,5.22
2022-11-04T04:28:34.931Z,4.70
2022-11-04T04:29:37.914Z,4.93
2022-11-04T04:30:40.241Z,4.63
2022-11-04T04:31:52.651Z,4.90
2022-11-04T04:32:57.864Z,4.05
2022-11-04T04:34:00.377Z,4.45
2022-11-04T04:35:16.982Z,5.05
2022-11-04T04:36:19.587Z,4.60
2022-11-04T04:37:23.308Z,5.13
2022-11-04T04:38:45.069Z,5.05
2022-11-04T04:40:08.766Z,4.68
2022-11-04T04:41:30.644Z,5.32
2022-11-04T04:42:51.464Z,4.85
2022-11-04T04:44:11.822Z,4.60
2022-11-04T04:45:21.344Z,4.68
2022-11-04T04:46:23.491Z,4.82
2022-11-04T04:47:28.158Z,4.68
2022-11-04T04:48:31.338Z,5.57
2022-11-04T04:49:39.497Z,5.50
2022-11-04T04:50:45.250Z,5.10
2022-11-04T04:51:48.090Z,4.97
2022-11-04T04:52:52.134Z,4.70
2022-11-04T04:53:53.714Z,4.78
2022-11-04T04:54:56.233Z,4.60
2022-11-04T04:55:58.764Z,4.47
2022-11-04T04:57:00.394Z,4.53
2022-11-04T04:58:02.990Z,3.85
2022-11-04T04:59:04.821Z,3.78
2022-11-04T05:00:09.864Z,4.00
2022-11-04T05:01:11.978Z,3.90
2022-11-04T05:02:15.143Z,3.70
2022-11-04T05:03:16.929Z,3.30
2022-11-04T05:04:20.781Z,3.13
2022-11-04T05:05:22.326Z,3.70
2022-11-04T05:06:24.857Z,3.55
2022-11-04T05:07:26.467Z,3.60
2022-11-04T05:08:28.949Z,3.78
2022-11-04T05:09:30.515Z,2.85
2022-11-04T05:10:33.144Z,3.75
2022-11-04T05:11:34.683Z,3.33
2022-11-04T05:12:54.776Z,2.72
2022-11-04T05:13:57.277Z,3.08
2022-11-04T05:14:58.799Z,3.75
2022-11-04T05:16:05.087Z,3.47
2022-11-04T05:17:07.683Z,3.50
2022-11-04T05:18:09.619Z,3.33
2022-11-04T05:19:12.464Z,3.42
2022-11-04T05:20:15.596Z,3.08
2022-11-04T05:21:19.172Z,3.40
2022-11-04T05:22:20.746Z,2.80
2022-11-04T05:23:25.714Z,3.17
2022-11-04T05:24:27.320Z,3.38
2022-11-04T05:25:29.802Z,3.70
2022-11-04T05:26:31.333Z,3.60
2022-11-04T05:27:33.855Z,3.30
2022-11-04T05:28:36.352Z,4.10
2022-11-04T05:29:37.868Z,3.70
2022-11-04T05:30:41.274Z,3.28
2022-11-04T05:31:42.849Z,3.60
2022-11-04T05:32:45.404Z,3.47
2022-11-04T05:33:46.952Z,3.30
2022-11-04T05:34:49.536Z,3.13
2022-11-04T05:35:52.398Z,3.70
2022-11-04T05:36:55.002Z,3.50
2022-11-04T05:37:56.862Z,3.85
2022-11-04T05:38:59.360Z,3.97
2022-11-04T05:40:01.053Z,3.40
2022-11-04T05:41:03.634Z,3.30
2022-11-04T05:42:05.275Z,3.20
2022-11-04T05:43:08.185Z,3.78
2022-11-04T05:44:10.899Z,3.58
2022-11-04T05:45:13.458Z,3.97
2022-11-04T05:46:15.071Z,3.55
2022-11-04T05:47:17.952Z,3.53
2022-11-04T05:48:19.476Z,3.83
2022-11-04T05:49:22.129Z,4.38
2022-11-04T05:50:23.661Z,3.22
2022-11-04T05:51:28.827Z,3.38
2022-11-04T05:52:30.421Z,3.28
2022-11-04T05:53:32.944Z,3.55
2022-11-04T05:54:34.488Z,3.22
2022-11-04T05:55:37.158Z,3.28
2022-11-04T05:56:38.733Z,3.92
2022-11-04T05:57:41.410Z,4.05
2022-11-04T05:58:42.986Z,3.97
2022-11-04T05:59:45.523Z,4.03
2022-11-04T06:00:47.114Z,3.92
2022-11-04T06:01:50.295Z,4.78
2022-11-04T06:02:52.108Z,3.65
2022-11-04T06:03:55.181Z,4.00
2022-11-04T06:04:57.699Z,4.57
2022-11-04T06:05:59.453Z,4.13
2022-11-04T06:07:03.371Z,4.78
2022-11-04T06:08:05.524Z,4.60
2022-11-04T06:09:08.206Z,4.25
2022-11-04T06:10:10.619Z,4.13
2022-11-04T06:11:13.558Z,4.15
2022-11-04T06:12:16.061Z,4.10
2022-11-04T06:13:18.566Z,4.55
2022-11-04T06:14:20.110Z,4.10
2022-11-04T06:15:22.728Z,4.22
2022-11-04T06:16:24.892Z,4.75
2022-11-04T06:17:27.472Z,4.35
2022-11-04T06:18:29.034Z,4.72
2022-11-04T06:19:31.606Z,4.43
2022-11-04T06:20:33.119Z,4.43
2022-11-04T06:21:35.593Z,4.25
2022-11-04T06:22:38.509Z,4.07
2022-11-04T06:23:41.212Z,4.70
2022-11-04T06:24:42.849Z,4.32
2022-11-04T06:25:45.399Z,4.47
2022-11-04T06:26:46.985Z,5.65
2022-11-04T06:27:49.535Z,4.82
2022-11-04T06:28:51.234Z,4.90
2022-11-04T06:29:54.210Z,3.92
2022-11-04T06:30:57.071Z,4.10
2022-11-04T06:31:59.934Z,4.70
2022-11-04T06:33:01.467Z,4.45
2022-11-04T06:34:04.096Z,4.47
2022-11-04T06:35:08.806Z,4.35
2022-11-04T06:36:16.359Z,4.20
2022-11-04T06:37:17.927Z,4.70
2022-11-04T06:38:21.828Z,4.65
2022-11-04T06:39:24.335Z,4.20
2022-11-04T06:40:26.550Z,4.53
2022-11-04T06:41:29.120Z,4.78
2022-11-04T06:42:30.719Z,4.28
2022-11-04T06:43:33.223Z,4.57
2022-11-04T06:44:35.246Z,4.70
2022-11-04T06:45:37.863Z,4.30
2022-11-04T06:46:41.021Z,4.45
2022-11-04T06:47:43.683Z,4.03
2022-11-04T06:48:45.385Z,4.28
2022-11-04T06:49:48.123Z,3.92
2022-11-04T06:50:49.771Z,3.85
2022-11-04T06:51:52.361Z,4.13
2022-11-04T06:52:53.887Z,3.55
2022-11-04T06:53:57.825Z,4.05
2022-11-04T06:54:59.364Z,3.40
2022-11-04T06:56:03.750Z,3.40
2022-11-04T06:57:05.610Z,3.90
2022-11-04T06:58:08.197Z,3.47
2022-11-04T06:59:11.334Z,3.65
2022-11-04T07:00:14.598Z,3.65
2022-11-04T07:01:21.843Z,3.50
2022-11-04T07:02:23.895Z,3.17
2022-11-04T07:03:26.508Z,3.92
2022-11-04T07:04:29.086Z,3.83
2022-11-04T07:05:33.160Z,3.75
2022-11-04T07:06:38.417Z,3.55
2022-11-04T07:07:42.885Z,4.00
2022-11-04T07:08:45.592Z,4.30
2022-11-04T07:09:49.539Z,3.63
2022-11-04T07:10:51.240Z,3.78
2022-11-04T07:11:53.813Z,3.78
2022-11-04T07:12:55.495Z,4.30
2022-11-04T07:13:58.329Z,3.80
2022-11-04T07:14:59.895Z,3.67
2022-11-04T07:16:05.939Z,3.97
2022-11-04T07:17:07.469Z,4.10
2022-11-04T07:18:10.441Z,4.63
2022-11-04T07:19:13.614Z,4.20
2022-11-04T07:20:15.279Z,4.43
2022-11-04T07:21:17.814Z,4.60
2022-11-04T07:22:19.392Z,4.22
2022-11-04T07:23:21.965Z,4.43
2022-11-04T07:24:23.744Z,4.07
2022-11-04T07:25:27.626Z,3.70
2022-11-04T07:26:30.182Z,4.53
2022-11-04T07:27:31.759Z,4.10
2022-11-04T07:28:35.070Z,3.80
2022-11-04T07:29:37.593Z,3.45
2022-11-04T07:30:39.179Z,3.35
2022-11-04T07:31:42.070Z,3.47
2022-11-04T07:32:43.657Z,2.95
2022-11-04T07:33:49.793Z,3.20
2022-11-04T07:34:51.397Z,3.35
2022-11-04T07:35:57.141Z,3.70
2022-11-04T07:37:00.093Z,3.03
2022-11-04T07:38:03.976Z,3.40
2022-11-04T07:39:06.684Z,3.50
2022-11-04T07:40:10.743Z,3.22
2022-11-04T07:41:14.832Z,3.67
2022-11-04T07:42:16.358Z,3.13
2022-11-04T07:43:18.892Z,2.90
2022-11-04T07:44:23.000Z,3.20
2022-11-04T07:45:24.647Z,3.15
2022-11-04T07:46:27.429Z,2.90
2022-11-04T07:47:29.706Z,3.08
2022-11-04T07:48:32.458Z,3.15
2022-11-04T07:49:34.240Z,3.10
2022-11-04T07:50:39.527Z,2.58
2022-11-04T07:51:42.199Z,3.97
2022-11-04T07:52:43.807Z,3.03
2022-11-04T07:53:46.545Z,3.22
2022-11-04T07:54:48.419Z,3.10
2022-11-04T07:55:51.108Z,3.30
2022-11-04T07:56:55.221Z,2.72
2022-11-04T07:57:56.818Z,3.00
2022-11-04T07:58:59.409Z,3.30
2022-11-04T08:00:00.951Z,3.13
2022-11-04T08:01:05.388Z,3.05
2022-11-04T08:02:07.178Z,3.10
2022-11-04T08:03:13.046Z,3.00
2022-11-04T08:04:15.057Z,2.70
2022-11-04T08:05:17.979Z,2.88
2022-11-04T08:06:21.642Z,2.70
2022-11-04T08:07:23.264Z,3.10
2022-11-04T08:08:26.196Z,3.30
2022-11-04T08:09:27.954Z,2.90
2022-11-04T08:10:30.802Z,2.60
2022-11-04T08:11:32.646Z,2.45
2022-11-04T08:12:38.054Z,2.42
2022-11-04T08:13:39.716Z,2.90
2022-11-04T08:14:42.312Z,2.58
2022-11-04T08:15:43.902Z,2.65
2022-11-04T08:16:46.450Z,2.65
2022-11-04T08:17:48.188Z,2.85
2022-11-04T08:18:52.541Z,2.58
2022-11-04T08:19:54.023Z,2.78
2022-11-04T08:20:56.478Z,2.70
2022-11-04T08:21:59.003Z,2.65
2022-11-04T08:23:00.598Z,2.60
2022-11-04T08:24:05.227Z,2.33
2022-11-04T08:25:07.264Z,2.30
2022-11-04T08:26:11.162Z,2.50
2022-11-04T08:27:14.006Z,3.47
2022-11-04T08:28:17.479Z,3.30
2022-11-04T08:29:20.327Z,3.00
2022-11-04T08:30:21.948Z,2.83
2022-11-04T08:31:25.546Z,3.00
2022-11-04T08:32:27.099Z,2.47
2022-11-04T08:33:31.114Z,2.72
2022-11-04T08:34:33.750Z,2.17
2022-11-04T08:35:40.733Z,2.22
2022-11-04T08:36:45.605Z,2.50
2022-11-04T08:37:47.200Z,2.50
2022-11-04T08:38:50.192Z,3.55
2022-11-04T08:39:52.763Z,2.95
2022-11-04T08:40:59.766Z,2.42
2022-11-04T08:42:02.958Z,2.05
2022-11-04T08:43:04.614Z,3.35
2022-11-04T08:44:08.853Z,2.83
2022-11-04T08:45:10.550Z,2.72
2022-11-04T08:46:16.441Z,2.30
2022-11-04T08:47:19.172Z,2.47
2022-11-04T08:48:20.839Z,2.10
2022-11-04T08:49:23.657Z,2.45
2022-11-04T08:50:27.766Z,2.30
2022-11-04T08:51:32.070Z,2.38
2022-11-04T08:52:34.587Z,2.30
2022-11-04T08:53:36.162Z,2.20
2022-11-04T08:54:38.817Z,2.20
2022-11-04T08:55:40.371Z,2.40
2022-11-04T08:56:43.039Z,2.30
2022-11-04T08:57:44.886Z,2.13
2022-11-04T08:58:47.910Z,2.58
2022-11-04T08:59:52.206Z,2.55
2022-11-04T09:00:53.917Z,2.75
2022-11-04T09:01:56.518Z,2.65
2022-11-04T09:02:58.102Z,2.72
2022-11-04T09:04:00.796Z,2.58
2022-11-04T09:05:03.316Z,2.20
2022-11-04T09:06:07.024Z,2.53
2022-11-04T09:07:09.618Z,2.58
2022-11-04T09:08:11.742Z,2.10
2022-11-04T09:09:16.521Z,2.60
2022-11-04T09:10:18.481Z,2.92
2022-11-04T09:11:21.021Z,2.78
2022-11-04T09:12:22.617Z,3.20
2022-11-04T09:13:25.430Z,2.88
2022-11-04T09:14:28.090Z,2.85
2022-11-04T09:15:30.996Z,3.45
2022-11-04T09:16:35.011Z,3.28
2022-11-04T09:17:37.593Z,2.72
2022-11-04T09:18:39.355Z,2.70
2022-11-04T09:19:41.971Z,2.33
2022-11-04T09:20:43.556Z,2.22
2022-11-04T09:21:46.103Z,2.88
2022-11-04T09:22:50.588Z,2.72
2022-11-04T09:23:53.835Z,2.75
2022-11-04T09:24:55.405Z,2.70
2022-11-04T09:25:58.671Z,2.70
2022-11-04T09:27:00.308Z,2.60
2022-11-04T09:28:02.980Z,2.35
2022-11-04T09:29:06.698Z,3.00
2022-11-04T09:30:09.635Z,2.70
2022-11-04T09:31:15.041Z,2.95
2022-11-04T09:32:16.659Z,2.63
2022-11-04T09:33:19.194Z,2.88
2022-11-04T09:34:21.770Z,2.30
2022-11-04T09:35:23.348Z,2.47
2022-11-04T09:36:26.399Z,3.03
2022-11-04T09:37:27.965Z,2.70
2022-11-04T09:38:30.519Z,2.30
2022-11-04T09:39:32.199Z,2.97
2022-11-04T09:40:37.886Z,2.78
2022-11-04T09:41:52.397Z,3.10
2022-11-04T09:43:02.682Z,2.15
2022-11-04T09:44:12.952Z,2.70
2022-11-04T09:45:22.972Z,2.67
2022-11-04T09:46:27.226Z,2.60
2022-11-04T09:47:31.626Z,2.55
2022-11-04T09:48:38.119Z,2.70
2022-11-04T09:49:45.485Z,2.85
2022-11-04T09:50:49.877Z,2.78
2022-11-04T09:51:54.962Z,2.83
2022-11-04T09:53:03.024Z,2.80
2022-11-04T09:54:11.899Z,2.47
2022-11-04T09:55:18.891Z,2.55
2022-11-04T09:56:22.900Z,2.47
2022-11-04T09:57:25.058Z,2.75
2022-11-04T09:58:31.505Z,2.95
2022-11-04T09:59:35.267Z,3.42
2022-11-04T10:00:37.808Z,2.90
2022-11-04T10:01:45.435Z,2.45
2022-11-04T10:02:55.479Z,2.20
2022-11-04T10:04:07.722Z,2.90
2022-11-04T10:05:18.429Z,2.40
2022-11-04T10:06:29.215Z,2.35
2022-11-04T10:07:45.560Z,2.30
2022-11-04T10:08:55.750Z,2.38
2022-11-04T10:10:04.416Z,2.53
2022-11-04T10:11:11.767Z,2.55
2022-11-04T10:12:21.898Z,2.50
2022-11-04T10:13:32.285Z,2.22
2022-11-04T10:14:54.432Z,3.13
2022-11-04T10:16:20.195Z,3.00
2022-11-04T10:17:34.335Z,2.53
2022-11-04T10:18:47.230Z,2.28
2022-11-04T10:19:59.787Z,2.28
2022-11-04T10:21:08.861Z,2.63
2022-11-04T10:22:13.976Z,2.75
2022-11-04T10:23:22.366Z,2.55
2022-11-04T10:24:26.611Z,3.00
2022-11-04T10:25:31.909Z,3.00
2022-11-04T10:26:40.105Z,2.92
2022-11-04T10:27:44.295Z,2.42
2022-11-04T10:28:51.206Z,2.92
2022-11-04T10:29:55.451Z,3.83
2022-11-04T10:30:57.034Z,3.15
2022-11-04T10:32:01.233Z,2.83
2022-11-04T10:33:10.825Z,3.10
2022-11-04T10:34:18.575Z,3.30
2022-11-04T10:35:29.518Z,2.70
2022-11-04T10:36:32.727Z,2.80
2022-11-04T10:37:35.508Z,3.10
2022-11-04T10:38:39.103Z,2.67
2022-11-04T10:39:44.736Z,2.38
2022-11-04T10:40:48.879Z,2.25
2022-11-04T10:41:51.544Z,2.28
2022-11-04T10:42:53.558Z,3.00
2022-11-04T10:43:59.842Z,2.47
2022-11-04T10:45:01.708Z,2.67
2022-11-04T10:46:17.753Z,3.22
2022-11-04T10:47:28.985Z,2.47
2022-11-04T10:48:36.995Z,2.90
2022-11-04T10:50:27.284Z,2.55
2022-11-04T10:51:22.028Z,2.50
2022-11-04T10:52:24.177Z,2.50
2022-11-04T10:53:28.465Z,2.92
2022-11-04T10:54:34.912Z,3.08
2022-11-04T10:55:41.534Z,2.40
2022-11-04T10:56:46.404Z,2.72
2022-11-04T10:57:49.117Z,2.85
2022-11-04T10:58:52.462Z,2.72
2022-11-04T10:59:55.280Z,3.15
2022-11-04T11:00:58.773Z,2.75
2022-11-04T11:02:01.842Z,3.67
2022-11-04T11:03:05.210Z,2.50
2022-11-04T11:04:09.975Z,3.13
2022-11-04T11:05:22.922Z,3.17
2022-11-04T11:06:28.661Z,3.38
2022-11-04T11:07:36.553Z,3.13
2022-11-04T11:08:39.270Z,3.28
2022-11-04T11:09:54.053Z,3.70
2022-11-04T11:10:57.493Z,3.00
2022-11-04T11:12:02.461Z,2.90
2022-11-04T11:13:07.314Z,2.97
2022-11-04T11:14:17.832Z,2.80
2022-11-04T11:15:29.953Z,2.90
2022-11-04T11:16:32.660Z,2.38
2022-11-04T11:17:39.354Z,2.60
2022-11-04T11:18:42.587Z,2.50
2022-11-04T11:19:50.762Z,2.80
2022-11-04T11:21:07.637Z,3.70
2022-11-04T11:22:31.482Z,4.53
2022-11-04T11:23:47.104Z,2.42
2022-11-04T11:24:48.725Z,2.75
2022-11-04T11:25:51.637Z,2.75
2022-11-04T11:26:55.887Z,2.92
2022-11-04T11:27:59.395Z,2.53
2022-11-04T11:29:02.387Z,2.40
2022-11-04T11:30:04.589Z,2.60
2022-11-04T11:31:13.173Z,2.25
2022-11-04T11:32:24.969Z,2.30
2022-11-04T11:33:29.740Z,3.40
2022-11-04T11:34:34.276Z,2.92
2022-11-04T11:35:42.137Z,2.60
2022-11-04T11:36:47.857Z,2.60
2022-11-04T11:37:49.574Z,2.55
2022-11-04T11:39:01.487Z,2.75
2022-11-04T11:40:03.945Z,2.85
2022-11-04T11:41:25.509Z,2.88
2022-11-04T11:42:28.681Z,2.75
2022-11-04T11:43:33.401Z,2.95
2022-11-04T11:44:40.171Z,3.10
2022-11-04T11:45:47.346Z,3.00
2022-11-04T11:46:54.484Z,3.30
2022-11-04T11:47:57.022Z,2.75
2022-11-04T11:49:02.157Z,3.45
2022-11-04T11:50:16.779Z,3.35
2022-11-04T11:51:30.702Z,3.00
2022-11-04T11:52:36.819Z,2.92
2022-11-04T11:53:45.533Z,2.55
2022-11-04T11:54:50.020Z,2.72
2022-11-04T11:55:55.275Z,2.65
2022-11-04T11:57:15.357Z,2.13
2022-11-04T12:01:22.016Z,2.75
2022-11-04T12:02:30.829Z,2.63
2022-11-04T12:09:38.913Z,2.50
2022-11-04T12:10:51.689Z,2.42
2022-11-04T12:12:03.105Z,2.20
2022-11-04T12:13:18.481Z,2.20
2022-11-04T12:14:34.029Z,2.20
2022-11-04T12:15:49.813Z,2.65
2022-11-04T12:16:57.479Z,2.33
2022-11-04T12:18:17.471Z,2.38
2022-11-04T12:19:31.138Z,2.88
2022-11-04T12:20:43.481Z,2.85
2022-11-04T12:21:49.719Z,3.08
2022-11-04T12:22:57.219Z,2.97
2022-11-04T12:24:03.758Z,2.65
2022-11-04T12:25:13.809Z,2.75
2022-11-04T12:26:25.809Z,3.53
2022-11-04T12:27:34.468Z,2.80
2022-11-04T12:28:45.551Z,2.47
2022-11-04T12:30:03.319Z,2.63
2022-11-04T12:31:14.529Z,2.55
2022-11-04T12:32:27.998Z,2.50
2022-11-04T12:33:37.630Z,2.47
2022-11-04T12:34:51.083Z,3.05
2022-11-04T12:36:07.759Z,2.63
2022-11-04T12:37:19.014Z,2.53
2022-11-04T12:38:45.456Z,2.42
2022-11-04T12:40:06.649Z,2.25
2022-11-04T12:41:52.426Z,2.70
2022-11-04T12:42:47.302Z,2.85
2022-11-04T12:43:56.857Z,2.42
2022-11-04T12:45:09.262Z,2.63
2022-11-04T12:46:16.840Z,2.80
2022-11-04T12:47:25.558Z,4.28
2022-11-04T12:48:38.706Z,2.53
2022-11-04T12:50:00.459Z,2.60
2022-11-04T12:51:07.109Z,2.95
2022-11-04T12:52:20.005Z,3.45
2022-11-04T12:53:42.685Z,2.72
2022-11-04T12:54:56.802Z,2.55
2022-11-04T12:56:05.888Z,2.47
2022-11-04T12:57:19.588Z,2.90
2022-11-04T12:58:34.279Z,2.72
2022-11-04T12:59:45.918Z,3.08
2022-11-04T13:00:51.959Z,2.88
2022-11-04T13:01:57.522Z,3.67
2022-11-04T13:03:03.344Z,3.90
2022-11-04T13:04:10.903Z,2.75
2022-11-04T13:05:34.407Z,2.83
2022-11-04T13:06:41.657Z,2.90
2022-11-04T13:07:49.956Z,2.70
2022-11-04T13:08:54.914Z,2.95
2022-11-04T13:10:00.825Z,2.53
2022-11-04T13:11:22.515Z,2.53
2022-11-04T13:12:27.007Z,2.65
2022-11-04T13:13:32.150Z,2.67
2022-11-04T13:14:39.969Z,2.17
2022-11-04T13:15:46.120Z,2.80
2022-11-04T13:17:00.500Z,2.70
2022-11-04T13:18:05.329Z,3.00
2022-11-04T13:19:25.198Z,2.35
2022-11-04T13:20:31.009Z,2.38
2022-11-04T13:21:36.565Z,2.75
2022-11-04T13:22:38.740Z,3.42
2022-11-04T13:23:46.435Z,2.58
2022-11-04T13:24:50.889Z,2.50
2022-11-04T13:25:53.655Z,2.92
2022-11-04T13:26:55.333Z,2.67
2022-11-04T13:27:58.675Z,2.47
2022-11-04T13:29:08.680Z,2.45
2022-11-04T13:30:21.865Z,2.60
2022-11-04T13:31:31.285Z,2.72
2022-11-04T13:32:36.956Z,2.72
2022-11-04T13:33:47.655Z,2.42
2022-11-04T13:34:56.015Z,2.85
2022-11-04T13:36:03.093Z,2.78
2022-11-04T13:37:11.962Z,2.63
2022-11-04T13:38:16.502Z,2.92
2022-11-04T13:39:22.463Z,3.03
2022-11-04T13:40:27.580Z,2.78
2022-11-04T13:41:48.695Z,3.83
2022-11-04T13:43:35.473Z,3.65
2022-11-04T13:44:40.083Z,3.58
2022-11-04T13:45:46.921Z,3.75
2022-11-04T13:46:52.511Z,3.70
2022-11-04T13:47:55.690Z,3.38
2022-11-04T13:49:02.214Z,3.30
2022-11-04T13:50:05.722Z,3.42
2022-11-04T13:51:12.004Z,3.85
2022-11-04T13:52:15.037Z,3.95
2022-11-04T13:53:16.694Z,4.28
2022-11-04T13:54:30.009Z,4.90
2022-11-04T13:55:33.002Z,3.25
2022-11-04T13:56:36.622Z,4.20
2022-11-04T13:57:51.486Z,4.57
2022-11-04T13:58:53.471Z,4.15
2022-11-04T14:00:23.438Z,4.05
2022-11-04T14:01:29.474Z,4.10
2022-11-04T14:02:52.981Z,4.00
2022-11-04T14:04:02.291Z,3.78
2022-11-04T14:05:55.443Z,4.47
2022-11-04T14:07:00.144Z,4.10
2022-11-04T14:08:10.361Z,5.03
2022-11-04T14:10:00.936Z,4.95
2022-11-04T14:11:12.748Z,5.13
2022-11-04T14:12:39.672Z,4.50
2022-11-04T14:14:03.682Z,4.65
2022-11-04T14:15:11.874Z,5.38
2022-11-04T14:16:47.079Z,4.30
2022-11-04T14:17:58.963Z,5.00
2022-11-04T14:19:57.458Z,4.60
2022-11-04T14:21:08.049Z,4.00
2022-11-04T14:22:16.619Z,4.00
2022-11-04T14:23:23.926Z,4.05
2022-11-04T14:24:28.099Z,3.50
2022-11-04T14:25:34.246Z,3.70
2022-11-04T14:26:42.486Z,3.58
2022-11-04T14:27:45.079Z,3.63
2022-11-04T14:28:48.832Z,3.30
2022-11-04T14:29:52.046Z,3.50
2022-11-04T14:30:56.110Z,3.38
2022-11-04T14:31:58.984Z,3.50
2022-11-04T14:33:03.976Z,3.40
2022-11-04T14:34:07.565Z,4.30
2022-11-04T14:35:17.362Z,3.15
2022-11-04T14:36:35.531Z,2.90
2022-11-04T14:37:37.388Z,2.78
2022-11-04T14:38:40.126Z,2.85
2022-11-04T14:39:43.309Z,2.97
2022-11-04T14:40:47.657Z,3.00
2022-11-04T14:41:56.329Z,2.53
2022-11-04T14:42:59.204Z,2.10
2022-11-04T14:44:03.852Z,2.70
2022-11-04T14:45:08.878Z,3.00
2022-11-04T14:46:13.055Z,2.22
2022-11-04T14:47:18.675Z,2.03
2022-11-04T14:48:20.574Z,2.20
2022-11-04T14:49:33.784Z,3.10
2022-11-04T14:50:36.705Z,2.90
2022-11-04T14:51:40.988Z,2.25